createdAt,value
2023-06-29T00:01:34.609Z,13.31
2023-06-29T00:06:38.114Z,13.20
2023-06-29T00:11:40.230Z,13.19
2023-06-29T00:16:43.175Z,13.10
2023-06-29T00:21:46.433Z,12.97
2023-06-29T00:26:48.529Z,12.87
2023-06-29T00:31:50.626Z,12.78
2023-06-29T00:36:54.208Z,12.69
2023-06-29T00:41:56.705Z,12.64
2023-06-29T00:46:59.367Z,12.53
2023-06-29T00:52:02.977Z,12.48
2023-06-29T00:57:05.281Z,12.41
2023-06-29T01:02:07.472Z,12.36
2023-06-29T01:07:16.672Z,12.33
2023-06-29T01:12:20.475Z,12.27
2023-06-29T01:17:25.795Z,12.23
2023-06-29T01:22:39.372Z,12.39
2023-06-29T01:27:42.942Z,12.69
2023-06-29T01:32:44.843Z,12.51
2023-06-29T01:37:50.986Z,12.28
2023-06-29T01:42:56.657Z,12.30
2023-06-29T01:47:59.537Z,12.21
2023-06-29T01:53:01.295Z,12.09
2023-06-29T01:58:04.984Z,12.01
2023-06-29T02:03:07.092Z,11.94
2023-06-29T02:08:09.153Z,11.90
2023-06-29T02:13:12.662Z,12.10
2023-06-29T02:18:15.174Z,12.04
2023-06-29T02:23:17.310Z,11.88
2023-06-29T02:28:20.726Z,11.86
2023-06-29T02:33:22.897Z,11.87
2023-06-29T02:38:24.700Z,11.93
2023-06-29T02:43:28.148Z,11.80
2023-06-29T02:48:29.872Z,12.00
2023-06-29T02:53:31.997Z,11.90
2023-06-29T02:58:35.486Z,11.80
2023-06-29T03:03:37.638Z,11.95
2023-06-29T03:08:39.700Z,12.18
2023-06-29T03:13:43.369Z,11.98
2023-06-29T03:18:45.611Z,11.99
2023-06-29T03:23:47.956Z,12.28
2023-06-29T03:28:51.381Z,12.61
2023-06-29T03:33:53.509Z,12.87
2023-06-29T03:38:55.296Z,13.19
2023-06-29T03:43:58.760Z,13.49
2023-06-29T03:49:00.905Z,13.58
2023-06-29T03:54:02.876Z,13.77
2023-06-29T03:59:06.323Z,13.98
2023-06-29T04:04:08.521Z,14.19
2023-06-29T04:09:11.378Z,14.41
2023-06-29T04:14:14.961Z,14.68
2023-06-29T04:19:17.231Z,14.95
2023-06-29T04:24:19.412Z,15.11
2023-06-29T04:29:23.318Z,15.34
2023-06-29T04:34:25.051Z,15.45
2023-06-29T04:39:27.379Z,15.72
2023-06-29T04:44:32.578Z,15.86
2023-06-29T04:49:34.729Z,16.24
2023-06-29T04:54:37.199Z,16.48
2023-06-29T04:59:40.685Z,16.61
2023-06-29T05:04:42.396Z,16.93
2023-06-29T05:09:44.910Z,17.51
2023-06-29T05:14:48.407Z,17.74
2023-06-29T05:19:51.055Z,18.38
2023-06-29T05:24:53.088Z,18.78
2023-06-29T05:29:56.310Z,20.42
2023-06-29T05:34:58.219Z,20.22
2023-06-29T05:40:00.435Z,20.38
2023-06-29T05:45:04.260Z,20.20
2023-06-29T05:50:07.024Z,20.07
2023-06-29T05:55:09.888Z,19.81
2023-06-29T06:00:14.312Z,19.17
2023-06-29T06:05:16.577Z,19.28
2023-06-29T06:10:18.748Z,19.71
2023-06-29T06:15:21.890Z,19.55
2023-06-29T06:20:24.023Z,19.77
2023-06-29T06:25:26.037Z,19.71
2023-06-29T06:30:29.547Z,20.01
2023-06-29T06:35:31.717Z,20.02
2023-06-29T06:40:33.504Z,20.37
2023-06-29T06:45:36.700Z,20.15
2023-06-29T06:50:38.705Z,20.27
2023-06-29T06:55:41.177Z,19.85
2023-06-29T07:00:44.577Z,20.04
2023-06-29T07:05:47.029Z,20.25
2023-06-29T07:16:20.411Z,20.24
2023-06-29T07:21:28.243Z,20.31
2023-06-29T07:26:33.262Z,20.50
2023-06-29T07:31:42.059Z,21.10
2023-06-29T07:36:44.271Z,21.42
2023-06-29T07:41:46.585Z,21.58
2023-06-29T07:46:49.868Z,21.49
2023-06-29T07:51:51.675Z,21.50
2023-06-29T08:01:59.574Z,21.28
2023-06-29T08:07:01.610Z,21.36
2023-06-29T08:12:04.392Z,21.86
2023-06-29T08:17:07.612Z,22.03
2023-06-29T08:22:09.666Z,21.49
2023-06-29T08:27:11.498Z,21.72
2023-06-29T08:32:14.727Z,22.12
2023-06-29T08:37:16.519Z,22.62
2023-06-29T08:42:19.178Z,22.52
2023-06-29T08:47:23.913Z,22.77
2023-06-29T08:52:27.471Z,23.00
2023-06-29T08:57:30.535Z,23.41
2023-06-29T09:02:35.301Z,24.77
2023-06-29T09:07:38.594Z,24.97
2023-06-29T09:12:40.921Z,25.55
2023-06-29T09:17:45.550Z,25.77
2023-06-29T09:22:50.185Z,25.16
2023-06-29T09:28:02.312Z,25.96
2023-06-29T09:33:10.157Z,25.49
2023-06-29T09:38:11.966Z,24.74
2023-06-29T09:43:16.718Z,25.25
2023-06-29T09:53:32.151Z,25.64
2023-06-29T09:58:34.676Z,26.02
2023-06-29T10:03:37.867Z,26.77
2023-06-29T10:08:41.223Z,28.34
2023-06-29T10:13:48.841Z,26.73
2023-06-29T10:18:57.357Z,29.18
2023-06-29T10:24:01.482Z,30.22
2023-06-29T10:29:04.476Z,29.08
2023-06-29T10:34:09.109Z,27.33
2023-06-29T10:39:40.613Z,28.16
2023-06-29T10:44:47.175Z,28.20
2023-06-29T10:49:56.672Z,28.56
2023-06-29T10:55:14.364Z,27.05
2023-06-29T11:00:17.056Z,25.88
2023-06-29T11:05:21.468Z,27.09
2023-06-29T11:10:23.897Z,27.84
2023-06-29T11:15:28.116Z,27.94
2023-06-29T11:20:31.673Z,28.29
2023-06-29T11:25:34.874Z,28.34
2023-06-29T11:30:39.460Z,28.77
2023-06-29T11:35:47.112Z,28.64
2023-06-29T11:40:48.947Z,28.25
2023-06-29T11:45:50.819Z,27.33
2023-06-29T11:50:54.149Z,28.19
2023-06-29T11:55:55.853Z,28.21
2023-06-29T12:00:57.794Z,28.04
2023-06-29T12:06:02.035Z,28.15
2023-06-29T12:11:04.640Z,28.49
2023-06-29T12:21:19.555Z,28.13
2023-06-29T12:26:22.444Z,28.41
2023-06-29T12:31:28.041Z,28.98
2023-06-29T12:36:31.476Z,28.74
2023-06-29T12:41:33.467Z,27.67
2023-06-29T12:46:35.296Z,28.36
2023-06-29T12:51:39.096Z,28.71
2023-06-29T12:56:40.890Z,28.57
2023-06-29T13:01:42.659Z,28.08
2023-06-29T13:06:45.886Z,28.77
2023-06-29T13:11:47.980Z,28.83
2023-06-29T13:16:50.300Z,28.65
2023-06-29T13:21:54.795Z,28.63
2023-06-29T13:26:58.154Z,28.82
2023-06-29T13:32:00.593Z,29.13
2023-06-29T13:37:04.893Z,29.40
2023-06-29T13:42:07.034Z,29.08
2023-06-29T13:47:09.177Z,29.17
2023-06-29T13:52:12.760Z,28.66
2023-06-29T13:57:14.587Z,28.87
2023-06-29T14:02:16.782Z,28.91
2023-06-29T14:07:20.422Z,29.65
2023-06-29T14:12:22.406Z,28.80
2023-06-29T14:17:24.619Z,29.48
2023-06-29T14:22:28.182Z,29.83
2023-06-29T14:27:31.058Z,29.12
2023-06-29T14:32:33.202Z,29.03
2023-06-29T14:37:36.530Z,30.07
2023-06-29T14:42:38.697Z,29.45
2023-06-29T14:47:40.807Z,28.41
2023-06-29T14:52:44.416Z,29.31
2023-06-29T14:57:48.349Z,29.44
2023-06-29T15:02:51.080Z,29.18
2023-06-29T15:07:54.620Z,28.56
2023-06-29T15:12:56.793Z,28.72
2023-06-29T15:17:58.927Z,29.33
2023-06-29T15:23:02.099Z,29.79
2023-06-29T15:28:04.452Z,30.44
2023-06-29T15:33:06.544Z,30.56
2023-06-29T15:38:10.383Z,29.21
2023-06-29T15:43:12.593Z,28.30
2023-06-29T15:48:14.897Z,28.10
2023-06-29T15:53:18.602Z,27.86
2023-06-29T15:58:20.375Z,27.58
2023-06-29T16:03:22.914Z,27.45
2023-06-29T16:08:26.989Z,27.87
2023-06-29T16:13:29.117Z,27.86
2023-06-29T16:18:31.848Z,27.63
2023-06-29T16:23:37.944Z,27.41
2023-06-29T16:28:40.221Z,27.31
2023-06-29T16:33:42.048Z,27.17
2023-06-29T16:38:45.489Z,27.02
2023-06-29T16:43:47.334Z,26.89
2023-06-29T16:48:56.962Z,26.81
2023-06-29T16:54:00.468Z,26.71
2023-06-29T16:59:03.088Z,26.84
2023-06-29T17:04:04.944Z,26.76
2023-06-29T17:09:08.357Z,26.91
2023-06-29T17:14:10.619Z,26.74
2023-06-29T17:19:13.463Z,26.46
2023-06-29T17:24:16.880Z,26.33
2023-06-29T17:29:18.961Z,26.25
2023-06-29T17:34:21.670Z,26.14
2023-06-29T17:39:25.429Z,25.97
2023-06-29T17:44:28.122Z,25.83
2023-06-29T17:49:30.129Z,25.84
2023-06-29T17:54:33.253Z,25.94
2023-06-29T17:59:35.111Z,25.79
2023-06-29T18:04:36.890Z,25.64
2023-06-29T18:09:40.101Z,25.51
2023-06-29T18:14:42.108Z,25.31
2023-06-29T18:19:43.988Z,25.25
2023-06-29T18:24:47.374Z,25.13
2023-06-29T18:29:49.518Z,25.04
2023-06-29T18:34:51.924Z,24.96
2023-06-29T18:39:55.894Z,24.83
2023-06-29T18:44:57.794Z,24.80
2023-06-29T18:50:00.373Z,24.84
2023-06-29T18:55:04.250Z,24.64
2023-06-29T19:00:07.710Z,24.57
2023-06-29T19:05:09.633Z,24.45
2023-06-29T19:10:13.324Z,24.50
2023-06-29T19:15:15.595Z,24.42
2023-06-29T19:20:17.367Z,24.16
2023-06-29T19:25:20.975Z,24.01
2023-06-29T19:30:23.454Z,23.86
2023-06-29T19:35:25.653Z,23.68
2023-06-29T19:40:28.977Z,23.53
2023-06-29T19:45:30.761Z,23.35
2023-06-29T19:50:33.042Z,23.13
2023-06-29T19:55:36.427Z,22.96
2023-06-29T20:00:38.219Z,22.83
2023-06-29T20:05:41.446Z,22.76
2023-06-29T20:10:45.185Z,22.72
2023-06-29T20:15:47.658Z,22.57
2023-06-29T20:20:49.972Z,22.43
2023-06-29T20:25:53.485Z,22.16
2023-06-29T20:30:56.495Z,22.03
2023-06-29T20:35:58.640Z,21.96
2023-06-29T20:41:02.033Z,21.89
2023-06-29T20:46:04.378Z,21.70
2023-06-29T20:51:17.116Z,21.66
2023-06-29T20:56:21.916Z,21.60
2023-06-29T21:01:24.095Z,21.51
2023-06-29T21:06:26.064Z,21.44
2023-06-29T21:16:33.089Z,21.44
2023-06-29T21:21:36.263Z,21.38
2023-06-29T21:26:40.010Z,21.42
2023-06-29T21:31:43.476Z,21.38
2023-06-29T21:36:45.849Z,21.31
2023-06-29T21:41:49.271Z,21.24
2023-06-29T21:46:51.067Z,21.31
2023-06-29T21:51:53.643Z,21.25
2023-06-29T21:56:57.122Z,21.29
2023-06-29T22:01:58.916Z,21.26
2023-06-29T22:07:11.605Z,21.18
2023-06-29T22:12:19.472Z,21.13
2023-06-29T22:17:21.187Z,21.07
2023-06-29T22:22:23.378Z,20.94
2023-06-29T22:27:27.045Z,20.92
2023-06-29T22:32:29.447Z,20.97
2023-06-29T22:37:31.442Z,21.01
2023-06-29T22:42:35.133Z,21.01
2023-06-29T22:47:37.111Z,20.90
2023-06-29T22:52:39.504Z,20.88
2023-06-29T22:57:43.055Z,20.84
2023-06-29T23:02:45.368Z,20.79
2023-06-29T23:07:47.848Z,20.76
2023-06-29T23:12:51.311Z,20.76
2023-06-29T23:17:53.488Z,20.70
2023-06-29T23:22:55.686Z,20.67
2023-06-29T23:27:59.154Z,20.72
2023-06-29T23:33:01.586Z,20.69
2023-06-29T23:38:03.892Z,20.65
2023-06-29T23:43:07.577Z,20.60
2023-06-29T23:48:09.564Z,20.57
2023-06-29T23:53:11.712Z,20.63
2023-06-29T23:58:15.040Z,20.59
